createdAt,value
2018-03-28T00:00:23.600Z,37.00
2018-03-28T00:01:23.594Z,36.40
2018-03-28T00:02:23.555Z,36.00
2018-03-28T00:03:23.533Z,37.40
2018-03-28T00:04:23.520Z,36.00
2018-03-28T00:05:23.481Z,35.70
2018-03-28T00:06:23.449Z,35.80
2018-03-28T00:07:23.418Z,36.80
2018-03-28T00:08:23.399Z,37.70
2018-03-28T00:09:23.371Z,35.20
2018-03-28T00:10:23.343Z,37.50
2018-03-28T00:11:23.322Z,36.20
2018-03-28T00:12:23.289Z,36.50
2018-03-28T00:13:23.264Z,37.40
2018-03-28T00:14:23.237Z,37.20
2018-03-28T00:15:23.209Z,38.00
2018-03-28T00:16:23.184Z,38.10
2018-03-28T00:17:23.158Z,37.50
2018-03-28T00:18:23.126Z,37.50
2018-03-28T00:19:23.936Z,38.00
2018-03-28T00:20:23.074Z,38.80
2018-03-28T00:21:23.054Z,39.10
2018-03-28T00:22:23.017Z,36.60
2018-03-28T00:23:22.998Z,39.20
2018-03-28T00:24:22.963Z,37.90
2018-03-28T00:25:22.939Z,39.10
2018-03-28T00:26:22.910Z,38.70
2018-03-28T00:27:22.886Z,39.50
2018-03-28T00:28:22.861Z,40.20
2018-03-28T00:29:22.830Z,41.00
2018-03-28T00:30:22.808Z,42.90
2018-03-28T00:31:22.788Z,44.60
2018-03-28T00:32:22.752Z,44.90
2018-03-28T00:33:22.737Z,44.30
2018-03-28T00:34:22.697Z,45.30
2018-03-28T00:35:22.673Z,45.60
2018-03-28T00:36:22.650Z,46.90
2018-03-28T00:37:22.616Z,47.70
2018-03-28T00:38:22.592Z,48.10
2018-03-28T00:39:22.732Z,49.20
2018-03-28T00:40:22.915Z,50.60
2018-03-28T00:41:22.926Z,48.20
2018-03-28T00:42:23.024Z,50.70
2018-03-28T00:43:22.826Z,52.10
2018-03-28T00:44:22.425Z,51.60
2018-03-28T00:45:22.403Z,54.90
2018-03-28T00:46:22.369Z,54.40
2018-03-28T00:47:22.350Z,58.50
2018-03-28T00:48:22.325Z,56.70
2018-03-28T00:49:22.297Z,57.20
2018-03-28T00:50:22.281Z,57.00
2018-03-28T00:51:22.243Z,57.60
2018-03-28T00:52:22.214Z,62.10
2018-03-28T00:53:22.196Z,59.50
2018-03-28T00:54:22.161Z,62.20
2018-03-28T00:55:22.135Z,60.70
2018-03-28T00:56:22.163Z,62.50
2018-03-28T00:57:22.085Z,64.90
2018-03-28T00:58:22.050Z,64.40
2018-03-28T00:59:22.026Z,68.90
2018-03-28T01:00:22.002Z,65.10
2018-03-28T01:01:21.975Z,66.10
2018-03-28T01:02:21.943Z,71.50
2018-03-28T01:03:21.924Z,69.00
2018-03-28T01:04:21.889Z,68.70
2018-03-28T01:05:21.863Z,70.80
2018-03-28T01:06:21.837Z,77.10
2018-03-28T01:07:21.817Z,77.60
2018-03-28T01:08:21.786Z,80.00
2018-03-28T01:09:21.756Z,71.00
2018-03-28T01:10:21.734Z,76.80
2018-03-28T01:11:21.713Z,73.80
2018-03-28T01:12:21.682Z,74.80
2018-03-28T01:13:21.656Z,72.30
2018-03-28T01:14:21.624Z,73.70
2018-03-28T01:15:21.610Z,73.40
2018-03-28T01:16:21.572Z,75.40
2018-03-28T01:17:21.562Z,74.10
2018-03-28T01:18:21.518Z,80.50
2018-03-28T01:19:21.492Z,75.60
2018-03-28T01:20:21.462Z,77.10
2018-03-28T01:21:21.435Z,71.80
2018-03-28T01:22:21.412Z,69.70
2018-03-28T01:23:21.389Z,78.40
2018-03-28T01:24:21.354Z,77.60
2018-03-28T01:25:21.357Z,78.90
2018-03-28T01:26:21.303Z,74.90
2018-03-28T01:27:21.279Z,76.20
2018-03-28T01:28:21.251Z,75.20
2018-03-28T01:29:21.224Z,77.20
2018-03-28T01:30:21.194Z,79.70
2018-03-28T01:31:21.172Z,78.80
2018-03-28T01:32:21.150Z,83.50
2018-03-28T01:33:21.130Z,82.70
2018-03-28T01:34:21.089Z,81.20
2018-03-28T01:35:21.058Z,81.40
2018-03-28T01:36:21.041Z,79.70
2018-03-28T01:37:21.018Z,79.20
2018-03-28T01:38:20.980Z,83.60
2018-03-28T01:39:20.958Z,81.10
2018-03-28T01:40:20.933Z,84.70
2018-03-28T01:41:20.908Z,86.30
2018-03-28T01:42:20.875Z,84.40
2018-03-28T01:43:20.850Z,87.70
2018-03-28T01:44:20.827Z,87.10
2018-03-28T01:45:20.802Z,84.40
2018-03-28T01:46:20.776Z,82.20
2018-03-28T01:47:20.742Z,82.90
2018-03-28T01:48:20.717Z,85.70
2018-03-28T01:49:20.682Z,86.70
2018-03-28T01:50:20.664Z,87.70
2018-03-28T01:51:20.634Z,85.20
2018-03-28T01:52:20.606Z,89.60
2018-03-28T01:53:20.577Z,87.80
2018-03-28T01:54:20.562Z,90.80
2018-03-28T01:55:20.526Z,87.70
2018-03-28T01:56:20.503Z,87.40
2018-03-28T01:57:20.477Z,90.50
2018-03-28T01:58:20.451Z,89.50
2018-03-28T01:59:20.421Z,91.60
2018-03-28T02:00:20.398Z,88.90
2018-03-28T02:01:20.368Z,93.70
2018-03-28T02:02:20.346Z,91.70
2018-03-28T02:03:20.321Z,97.20
2018-03-28T02:04:20.289Z,96.20
2018-03-28T02:05:20.258Z,96.30
2018-03-28T02:06:20.235Z,96.20
2018-03-28T02:07:20.217Z,99.10
2018-03-28T02:08:20.180Z,100.20
2018-03-28T02:09:20.156Z,109.10
2018-03-28T02:10:20.123Z,107.80
2018-03-28T02:11:20.105Z,109.60
2018-03-28T02:12:20.075Z,101.30
2018-03-28T02:13:20.042Z,104.50
2018-03-28T02:14:20.032Z,112.30
2018-03-28T02:15:19.999Z,105.40
2018-03-28T02:16:19.967Z,111.30
2018-03-28T02:17:19.946Z,116.60
2018-03-28T02:18:19.907Z,117.80
2018-03-28T02:19:19.889Z,119.30
2018-03-28T02:20:19.861Z,126.40
2018-03-28T02:21:19.831Z,130.80
2018-03-28T02:22:19.810Z,116.90
2018-03-28T02:23:19.773Z,130.20
2018-03-28T02:24:19.758Z,120.60
2018-03-28T02:25:19.721Z,118.60
2018-03-28T02:26:19.695Z,121.90
2018-03-28T02:27:19.675Z,117.30
2018-03-28T02:28:19.641Z,130.50
2018-03-28T02:29:19.617Z,129.00
2018-03-28T02:30:19.596Z,131.20
2018-03-28T02:31:19.564Z,116.80
2018-03-28T02:32:19.532Z,125.80
2018-03-28T02:33:19.513Z,114.50
2018-03-28T02:34:19.482Z,120.00
2018-03-28T02:35:19.454Z,124.90
2018-03-28T02:36:19.427Z,126.40
2018-03-28T02:37:19.399Z,128.50
2018-03-28T02:38:19.381Z,133.50
2018-03-28T02:39:19.352Z,126.40
2018-03-28T02:40:19.320Z,126.50
2018-03-28T02:41:19.296Z,129.20
2018-03-28T02:42:19.266Z,126.70
2018-03-28T02:43:19.240Z,132.20
2018-03-28T02:44:19.217Z,131.20
2018-03-28T02:45:19.216Z,121.40
2018-03-28T02:46:19.164Z,129.40
2018-03-28T02:47:19.131Z,125.20
2018-03-28T02:48:19.108Z,120.80
2018-03-28T02:49:19.081Z,119.00
2018-03-28T02:50:19.056Z,111.90
2018-03-28T02:51:19.022Z,116.90
2018-03-28T02:52:19.005Z,111.90
2018-03-28T02:53:18.984Z,119.50
2018-03-28T02:54:18.947Z,116.00
2018-03-28T02:55:18.922Z,112.90
2018-03-28T02:56:18.926Z,106.20
2018-03-28T02:57:18.862Z,105.70
2018-03-28T02:58:18.842Z,113.30
2018-03-28T02:59:18.812Z,115.50
2018-03-28T03:00:18.784Z,117.80
2018-03-28T03:01:18.764Z,108.90
2018-03-28T03:02:18.733Z,103.80
2018-03-28T03:03:18.702Z,116.70
2018-03-28T03:04:18.674Z,112.80
2018-03-28T03:05:18.649Z,114.30
2018-03-28T03:06:18.626Z,117.60
2018-03-28T03:07:18.617Z,112.00
2018-03-28T03:08:18.568Z,109.90
2018-03-28T03:09:18.545Z,108.90
2018-03-28T03:10:18.529Z,108.30
2018-03-28T03:11:18.485Z,107.80
2018-03-28T03:12:18.462Z,105.50
2018-03-28T03:13:18.441Z,104.40
2018-03-28T03:14:18.408Z,108.50
2018-03-28T03:15:18.379Z,107.70
2018-03-28T03:16:18.363Z,97.90
2018-03-28T03:17:18.333Z,98.70
2018-03-28T03:18:18.302Z,104.00
2018-03-28T03:19:18.271Z,105.20
2018-03-28T03:20:18.248Z,101.90
2018-03-28T03:21:18.229Z,92.10
2018-03-28T03:22:18.189Z,97.90
2018-03-28T03:23:18.171Z,95.40
2018-03-28T03:24:18.137Z,98.30
2018-03-28T03:25:18.114Z,91.80
2018-03-28T03:26:18.091Z,96.90
2018-03-28T03:27:18.056Z,92.40
2018-03-28T03:28:18.035Z,90.90
2018-03-28T03:29:18.007Z,95.20
2018-03-28T03:30:17.981Z,92.60
2018-03-28T03:31:17.960Z,92.80
2018-03-28T03:32:17.922Z,90.00
2018-03-28T03:33:17.902Z,89.10
2018-03-28T03:34:17.878Z,90.80
2018-03-28T03:35:17.848Z,92.30
2018-03-28T03:36:17.819Z,94.30
2018-03-28T03:37:17.793Z,91.20
2018-03-28T03:38:17.765Z,89.10
2018-03-28T03:39:17.742Z,89.10
2018-03-28T03:40:17.729Z,89.90
2018-03-28T03:41:17.684Z,89.10
2018-03-28T03:42:17.662Z,86.70
2018-03-28T03:43:17.632Z,89.70
2018-03-28T03:44:17.604Z,88.10
2018-03-28T03:45:17.581Z,89.00
2018-03-28T03:46:17.557Z,90.20
2018-03-28T03:47:17.524Z,89.00
2018-03-28T03:48:17.493Z,88.30
2018-03-28T03:49:17.479Z,90.40
2018-03-28T03:50:17.446Z,85.90
2018-03-28T03:51:17.415Z,86.90
2018-03-28T03:52:17.393Z,82.60
2018-03-28T03:53:17.360Z,84.20
2018-03-28T03:54:17.344Z,84.00
2018-03-28T03:55:17.320Z,84.60
2018-03-28T03:56:17.277Z,83.80
2018-03-28T03:57:17.259Z,85.90
2018-03-28T03:58:17.226Z,86.80
2018-03-28T03:59:17.213Z,86.90
2018-03-28T04:00:17.179Z,86.90
2018-03-28T04:01:17.149Z,86.90
2018-03-28T04:02:17.120Z,84.20
2018-03-28T04:03:17.098Z,85.10
2018-03-28T04:04:17.070Z,82.30
2018-03-28T04:05:17.041Z,84.60
2018-03-28T04:06:17.018Z,81.70
2018-03-28T04:07:16.993Z,82.10
2018-03-28T04:08:16.964Z,82.10
2018-03-28T04:09:16.942Z,78.80
2018-03-28T04:10:16.904Z,82.10
2018-03-28T04:11:16.875Z,78.10
2018-03-28T04:12:16.861Z,81.60
2018-03-28T04:13:16.826Z,80.60
2018-03-28T04:14:16.808Z,77.10
2018-03-28T04:15:16.771Z,79.40
2018-03-28T04:16:16.756Z,79.70
2018-03-28T04:17:16.714Z,77.80
2018-03-28T04:18:16.692Z,80.90
2018-03-28T04:19:16.677Z,78.80
2018-03-28T04:20:16.645Z,76.00
2018-03-28T04:21:16.616Z,76.90
2018-03-28T04:22:16.648Z,73.80
2018-03-28T04:23:16.644Z,78.40
2018-03-28T04:24:16.592Z,76.00
2018-03-28T04:25:16.545Z,79.30
2018-03-28T04:26:16.548Z,77.30
2018-03-28T04:27:16.554Z,74.50
2018-03-28T04:28:16.487Z,76.90
2018-03-28T04:29:16.446Z,75.20
2018-03-28T04:30:16.414Z,75.70
2018-03-28T04:31:16.347Z,75.50
2018-03-28T04:32:16.317Z,73.70
2018-03-28T04:33:16.309Z,75.20
2018-03-28T04:34:16.311Z,70.90
2018-03-28T04:35:16.313Z,74.20
2018-03-28T04:36:16.216Z,76.80
2018-03-28T04:37:16.187Z,71.30
2018-03-28T04:38:16.154Z,71.20
2018-03-28T04:39:16.135Z,69.30
2018-03-28T04:40:16.109Z,72.50
2018-03-28T04:41:16.078Z,70.90
2018-03-28T04:42:16.048Z,73.50
2018-03-28T04:43:16.020Z,72.50
2018-03-28T04:44:16.006Z,69.40
2018-03-28T04:45:15.976Z,72.10
2018-03-28T04:46:15.941Z,73.10
2018-03-28T04:47:15.915Z,70.00
2018-03-28T04:48:15.888Z,72.60
2018-03-28T04:49:15.862Z,71.50
2018-03-28T04:50:15.834Z,68.80
2018-03-28T04:51:15.812Z,69.80
2018-03-28T04:52:15.787Z,71.10
2018-03-28T04:53:15.758Z,70.90
2018-03-28T04:54:15.731Z,70.90
2018-03-28T04:55:15.703Z,72.90
2018-03-28T04:56:15.678Z,75.10
2018-03-28T04:57:15.648Z,78.00
2018-03-28T04:58:15.631Z,73.50
2018-03-28T04:59:15.602Z,76.90
2018-03-28T05:00:15.568Z,74.40
2018-03-28T05:01:15.545Z,73.60
2018-03-28T05:02:15.510Z,70.10
2018-03-28T05:03:15.486Z,70.70
2018-03-28T05:04:15.494Z,71.60
2018-03-28T05:05:15.440Z,73.30
2018-03-28T05:06:15.400Z,74.40
2018-03-28T05:07:15.380Z,74.80
2018-03-28T05:08:15.360Z,76.30
2018-03-28T05:09:15.327Z,71.90
2018-03-28T05:10:15.310Z,76.40
2018-03-28T05:11:15.272Z,72.00
2018-03-28T05:12:15.242Z,71.30
2018-03-28T05:13:15.220Z,74.30
2018-03-28T05:14:15.189Z,73.30
2018-03-28T05:15:15.162Z,69.40
2018-03-28T05:16:15.144Z,72.70
2018-03-28T05:17:15.106Z,70.80
2018-03-28T05:18:15.092Z,68.90
2018-03-28T05:19:15.063Z,70.50
2018-03-28T05:20:15.030Z,69.60
2018-03-28T05:21:15.004Z,70.40
2018-03-28T05:22:14.984Z,67.10
2018-03-28T05:23:14.951Z,69.10
2018-03-28T05:24:14.919Z,72.00
2018-03-28T05:25:14.896Z,70.40
2018-03-28T05:26:14.875Z,73.80
2018-03-28T05:27:14.844Z,76.60
2018-03-28T05:28:14.812Z,74.90
2018-03-28T05:29:14.787Z,74.60
2018-03-28T05:30:14.765Z,70.20
2018-03-28T05:31:14.737Z,75.60
2018-03-28T05:32:14.700Z,69.40
2018-03-28T05:33:14.687Z,71.80
2018-03-28T05:34:14.652Z,71.50
2018-03-28T05:35:14.627Z,72.50
2018-03-28T05:36:14.608Z,72.90
2018-03-28T05:37:14.585Z,67.00
2018-03-28T05:38:14.547Z,65.40
2018-03-28T05:39:14.516Z,60.80
2018-03-28T05:40:14.496Z,63.30
2018-03-28T05:41:14.467Z,56.10
2018-03-28T05:42:14.444Z,63.70
2018-03-28T05:43:14.411Z,62.50
2018-03-28T05:44:14.383Z,66.10
2018-03-28T05:45:14.358Z,62.80
2018-03-28T05:46:14.324Z,65.30
2018-03-28T05:47:14.299Z,66.00
2018-03-28T05:48:14.301Z,66.70
2018-03-28T05:49:14.252Z,67.10
2018-03-28T05:50:14.222Z,69.80
2018-03-28T05:51:14.191Z,69.80
2018-03-28T05:52:14.169Z,73.80
2018-03-28T05:53:14.141Z,75.40
2018-03-28T05:54:14.122Z,72.60
2018-03-28T05:55:14.085Z,78.00
2018-03-28T05:56:14.060Z,76.40
2018-03-28T05:57:14.063Z,77.90
2018-03-28T05:58:14.005Z,79.00
2018-03-28T05:59:13.979Z,75.20
2018-03-28T06:00:13.956Z,78.60
2018-03-28T06:01:13.927Z,79.60
2018-03-28T06:02:13.901Z,82.00
2018-03-28T06:03:13.899Z,81.00
2018-03-28T06:04:13.844Z,80.30
2018-03-28T06:05:13.813Z,85.40
2018-03-28T06:06:13.791Z,84.30
2018-03-28T06:07:13.760Z,86.10
2018-03-28T06:08:13.741Z,85.60
2018-03-28T06:09:13.719Z,86.00
2018-03-28T06:10:13.678Z,82.40
2018-03-28T06:11:13.655Z,81.40
2018-03-28T06:12:13.630Z,76.50
2018-03-28T06:13:13.599Z,84.60
2018-03-28T06:14:13.579Z,84.00
2018-03-28T06:15:13.551Z,80.40
2018-03-28T06:16:13.520Z,80.30
2018-03-28T06:17:13.495Z,78.60
2018-03-28T06:18:13.460Z,80.00
2018-03-28T06:19:13.435Z,79.90
2018-03-28T06:20:13.421Z,79.10
2018-03-28T06:21:13.387Z,84.00
2018-03-28T06:22:13.365Z,84.50
2018-03-28T06:23:13.334Z,82.90
2018-03-28T06:24:13.339Z,83.20
2018-03-28T06:25:13.280Z,87.20
2018-03-28T06:26:13.265Z,74.50
2018-03-28T06:27:13.228Z,82.30
2018-03-28T06:28:13.193Z,82.00
2018-03-28T06:29:13.177Z,84.20
2018-03-28T06:30:13.141Z,84.50
2018-03-28T06:31:13.113Z,85.50
2018-03-28T06:32:13.095Z,84.00
2018-03-28T06:33:13.062Z,81.00
2018-03-28T06:34:13.039Z,80.50
2018-03-28T06:35:13.013Z,83.90
2018-03-28T06:36:13.007Z,75.80
2018-03-28T06:37:12.950Z,80.30
2018-03-28T06:38:12.937Z,78.70
2018-03-28T06:39:12.906Z,81.70
2018-03-28T06:40:12.874Z,76.00
2018-03-28T06:41:12.854Z,79.90
2018-03-28T06:42:12.821Z,83.10
2018-03-28T06:43:12.805Z,80.40
2018-03-28T06:44:12.763Z,78.20
2018-03-28T06:45:12.747Z,78.90
2018-03-28T06:46:12.721Z,74.90
2018-03-28T06:47:12.692Z,78.90
2018-03-28T06:48:12.661Z,74.10
2018-03-28T06:49:12.632Z,74.30
2018-03-28T06:50:12.607Z,73.00
2018-03-28T06:51:12.581Z,72.40
2018-03-28T06:52:12.554Z,72.90
2018-03-28T06:53:12.522Z,70.10
2018-03-28T06:54:12.502Z,74.80
2018-03-28T06:55:12.475Z,72.30
2018-03-28T06:56:12.453Z,73.20
2018-03-28T06:57:12.421Z,72.20
2018-03-28T06:58:12.402Z,75.00
2018-03-28T06:59:12.362Z,72.40
2018-03-28T07:00:12.343Z,75.00
2018-03-28T07:01:12.312Z,77.70
2018-03-28T07:02:12.285Z,78.00
2018-03-28T07:03:12.258Z,77.40
2018-03-28T07:04:12.236Z,78.40
2018-03-28T07:05:12.206Z,83.50
2018-03-28T07:06:12.179Z,83.20
2018-03-28T07:07:12.153Z,82.50
2018-03-28T07:08:12.119Z,81.40
2018-03-28T07:09:12.093Z,82.80
2018-03-28T07:10:12.069Z,83.10
2018-03-28T07:11:12.060Z,83.20
2018-03-28T07:12:12.018Z,82.70
2018-03-28T07:13:11.990Z,83.90
2018-03-28T07:14:11.966Z,84.90
2018-03-28T07:15:11.940Z,79.60
2018-03-28T07:16:11.907Z,83.50
2018-03-28T07:17:11.877Z,84.90
2018-03-28T07:18:11.865Z,83.50
2018-03-28T07:19:11.838Z,81.20
2018-03-28T07:20:11.800Z,80.60
2018-03-28T07:21:11.777Z,80.90
2018-03-28T07:22:11.744Z,83.40
2018-03-28T07:23:11.724Z,82.60
2018-03-28T07:24:11.700Z,83.00
2018-03-28T07:25:11.678Z,79.80
2018-03-28T07:26:11.644Z,82.10
2018-03-28T07:27:11.612Z,74.00
2018-03-28T07:28:11.583Z,76.30
2018-03-28T07:29:11.563Z,73.40
2018-03-28T07:30:11.531Z,74.20
2018-03-28T07:31:11.505Z,75.60
2018-03-28T07:32:11.475Z,71.20
2018-03-28T07:33:11.458Z,68.60
2018-03-28T07:34:11.432Z,71.20
2018-03-28T07:35:11.393Z,65.10
2018-03-28T07:36:11.381Z,63.80
2018-03-28T07:37:11.350Z,62.40
2018-03-28T07:38:11.322Z,64.10
2018-03-28T07:39:11.287Z,61.80
2018-03-28T07:40:11.271Z,61.40
2018-03-28T07:41:11.238Z,60.70
2018-03-28T07:42:11.213Z,61.50
2018-03-28T07:43:11.184Z,59.40
2018-03-28T07:44:11.159Z,61.80
2018-03-28T07:45:11.130Z,58.30
2018-03-28T07:46:11.103Z,58.50
2018-03-28T07:47:11.074Z,57.70
2018-03-28T07:48:11.062Z,58.60
2018-03-28T07:49:11.028Z,59.00
2018-03-28T07:50:11.004Z,60.30
2018-03-28T07:51:10.980Z,61.40
2018-03-28T07:52:10.943Z,59.50
2018-03-28T07:53:10.915Z,58.50
2018-03-28T07:54:10.901Z,57.60
2018-03-28T07:55:10.872Z,58.70
2018-03-28T07:56:10.835Z,55.60
2018-03-28T07:57:10.811Z,56.50
2018-03-28T07:58:10.794Z,56.40
2018-03-28T07:59:10.760Z,57.60
2018-03-28T08:00:10.745Z,59.20
2018-03-28T08:01:10.700Z,57.40
2018-03-28T08:02:10.679Z,58.30
2018-03-28T08:03:10.662Z,61.20
2018-03-28T08:04:10.626Z,62.90
2018-03-28T08:05:10.603Z,62.50
2018-03-28T08:06:10.581Z,64.70
2018-03-28T08:07:10.556Z,64.30
2018-03-28T08:08:10.530Z,63.90
2018-03-28T08:09:10.494Z,64.70
2018-03-28T08:10:10.472Z,65.90
2018-03-28T08:11:10.441Z,62.80
2018-03-28T08:12:10.421Z,63.70
2018-03-28T08:13:10.394Z,64.90
2018-03-28T08:14:10.383Z,62.80
2018-03-28T08:15:10.343Z,59.10
2018-03-28T08:16:10.316Z,57.00
2018-03-28T08:17:10.284Z,55.20
2018-03-28T08:18:10.258Z,51.00
2018-03-28T08:19:10.277Z,50.30
2018-03-28T08:20:10.211Z,49.10
2018-03-28T08:21:10.187Z,50.10
2018-03-28T08:22:10.153Z,47.50
2018-03-28T08:23:10.131Z,47.80
2018-03-28T08:24:10.106Z,48.30
2018-03-28T08:25:10.069Z,48.00
2018-03-28T08:26:10.058Z,48.60
2018-03-28T08:27:10.027Z,48.90
2018-03-28T08:28:09.998Z,45.30
2018-03-28T08:29:09.992Z,47.80
2018-03-28T08:30:09.951Z,48.60
2018-03-28T08:31:09.921Z,47.50
2018-03-28T08:32:09.897Z,47.20
2018-03-28T08:33:09.869Z,45.50
2018-03-28T08:34:09.840Z,45.70
2018-03-28T08:35:09.814Z,44.90
2018-03-28T08:36:09.792Z,44.00
2018-03-28T08:37:09.772Z,44.70
2018-03-28T08:38:09.733Z,45.20
2018-03-28T08:39:09.711Z,45.40
2018-03-28T08:40:09.678Z,45.50
2018-03-28T08:41:09.667Z,43.80
2018-03-28T08:42:09.627Z,47.30
2018-03-28T08:43:09.610Z,48.30
2018-03-28T08:44:09.588Z,50.10
2018-03-28T08:45:09.558Z,47.80
2018-03-28T08:46:09.533Z,49.10
2018-03-28T08:47:09.505Z,49.60
2018-03-28T08:48:09.481Z,53.40
2018-03-28T08:49:09.449Z,51.30
2018-03-28T08:50:09.429Z,54.40
2018-03-28T08:51:09.409Z,57.90
2018-03-28T08:52:09.426Z,55.80
2018-03-28T08:53:09.353Z,56.30
2018-03-28T08:54:09.314Z,57.40
2018-03-28T08:55:09.299Z,55.60
2018-03-28T08:56:09.271Z,54.30
2018-03-28T08:57:09.241Z,52.40
2018-03-28T08:58:09.219Z,54.50
2018-03-28T08:59:09.188Z,56.00
2018-03-28T09:00:09.164Z,58.20
2018-03-28T09:01:09.139Z,57.50
2018-03-28T09:02:09.107Z,55.10
2018-03-28T09:03:09.098Z,59.00
2018-03-28T09:04:09.056Z,57.30
2018-03-28T09:05:09.038Z,57.20
2018-03-28T09:06:09.012Z,58.10
2018-03-28T09:07:08.982Z,59.50
2018-03-28T09:08:08.963Z,56.50
2018-03-28T09:09:08.934Z,57.00
2018-03-28T09:10:08.916Z,58.70
2018-03-28T09:11:08.889Z,55.50
2018-03-28T09:12:08.856Z,59.80
2018-03-28T09:13:08.831Z,57.50
2018-03-28T09:14:08.808Z,57.10
2018-03-28T09:15:08.771Z,55.50
2018-03-28T09:16:08.755Z,54.70
2018-03-28T09:17:08.731Z,55.60
2018-03-28T09:18:08.709Z,52.90
2018-03-28T09:19:08.687Z,52.10
2018-03-28T09:20:08.649Z,51.80
2018-03-28T09:21:08.627Z,52.40
2018-03-28T09:22:08.596Z,48.10
2018-03-28T09:23:08.579Z,47.20
2018-03-28T09:24:08.540Z,43.90
2018-03-28T09:25:08.528Z,41.70
2018-03-28T09:26:08.549Z,40.00
2018-03-28T09:27:08.474Z,39.90
2018-03-28T09:28:08.452Z,38.60
2018-03-28T09:29:08.421Z,38.40
2018-03-28T09:30:08.392Z,39.60
2018-03-28T09:31:08.363Z,39.00
2018-03-28T09:32:08.344Z,39.30
2018-03-28T09:33:08.312Z,39.10
2018-03-28T09:34:08.286Z,38.20
2018-03-28T09:35:08.261Z,37.70
2018-03-28T09:36:08.242Z,39.10
2018-03-28T09:37:08.226Z,39.00
2018-03-28T09:38:08.183Z,34.00
2018-03-28T09:39:08.212Z,36.10
2018-03-28T09:40:08.142Z,34.70
2018-03-28T09:41:08.113Z,34.50
2018-03-28T09:42:08.085Z,32.90
2018-03-28T09:43:08.067Z,33.00
2018-03-28T09:44:08.046Z,32.50
2018-03-28T09:45:08.027Z,31.40
2018-03-28T09:46:07.983Z,32.10
2018-03-28T09:47:07.950Z,32.10
2018-03-28T09:48:07.933Z,32.20
2018-03-28T09:49:07.901Z,33.10
2018-03-28T09:50:07.878Z,32.10
2018-03-28T09:51:07.848Z,32.00
2018-03-28T09:52:07.843Z,32.40
2018-03-28T09:53:07.800Z,33.50
2018-03-28T09:54:07.777Z,32.70
2018-03-28T09:55:07.752Z,32.40
2018-03-28T09:56:07.771Z,33.90
2018-03-28T09:57:07.733Z,32.10
2018-03-28T09:58:07.668Z,32.60
2018-03-28T09:59:07.644Z,33.70
2018-03-28T10:00:07.628Z,32.90
2018-03-28T10:01:07.600Z,33.40
2018-03-28T10:02:07.567Z,32.80
2018-03-28T10:03:07.544Z,33.20
2018-03-28T10:04:07.516Z,33.30
2018-03-28T10:05:07.494Z,32.40
2018-03-28T10:06:07.457Z,32.00
2018-03-28T10:07:07.448Z,33.00
2018-03-28T10:08:07.411Z,32.70
2018-03-28T10:09:07.394Z,33.10
2018-03-28T10:10:07.361Z,33.90
2018-03-28T10:11:07.331Z,34.20
2018-03-28T10:12:07.312Z,35.70
2018-03-28T10:13:07.281Z,35.10
2018-03-28T10:14:07.261Z,34.50
2018-03-28T10:15:07.236Z,37.30
2018-03-28T10:16:07.202Z,35.90
2018-03-28T10:17:07.185Z,35.80
2018-03-28T10:18:07.196Z,36.40
2018-03-28T10:19:07.127Z,36.80
2018-03-28T10:20:07.105Z,36.00
2018-03-28T10:21:07.080Z,36.60
2018-03-28T10:22:07.056Z,36.90
2018-03-28T10:23:07.019Z,35.90
2018-03-28T10:24:07.004Z,36.50
2018-03-28T10:25:06.973Z,38.70
2018-03-28T10:26:06.948Z,37.20
2018-03-28T10:27:06.922Z,37.90
2018-03-28T10:28:06.899Z,37.70
2018-03-28T10:29:06.862Z,37.30
2018-03-28T10:30:06.847Z,37.20
2018-03-28T10:31:06.816Z,38.10
2018-03-28T10:32:06.795Z,37.30
2018-03-28T10:33:06.768Z,38.70
2018-03-28T10:34:06.739Z,38.40
2018-03-28T10:35:06.754Z,39.40
2018-03-28T10:36:06.685Z,38.80
2018-03-28T10:37:06.662Z,40.50
2018-03-28T10:38:06.633Z,38.60
2018-03-28T10:39:06.618Z,37.90
2018-03-28T10:40:06.593Z,39.50
2018-03-28T10:41:06.559Z,40.10
2018-03-28T10:42:06.530Z,39.70
2018-03-28T10:43:06.508Z,39.30
2018-03-28T10:44:06.479Z,38.70
2018-03-28T10:45:06.452Z,39.90
2018-03-28T10:46:06.429Z,40.50
2018-03-28T10:47:06.394Z,39.10
2018-03-28T10:48:06.379Z,39.90
2018-03-28T10:49:06.352Z,40.90
2018-03-28T10:50:06.315Z,40.20
2018-03-28T10:51:06.299Z,40.00
2018-03-28T10:52:06.281Z,42.10
2018-03-28T10:53:06.239Z,43.10
2018-03-28T10:54:06.222Z,44.00
2018-03-28T10:55:06.186Z,43.80
2018-03-28T10:56:06.246Z,44.50
2018-03-28T10:57:06.138Z,44.60
2018-03-28T10:58:06.113Z,44.90
2018-03-28T10:59:06.098Z,45.70
2018-03-28T11:00:06.061Z,45.50
2018-03-28T11:01:06.036Z,46.60
2018-03-28T11:02:06.012Z,47.50
2018-03-28T11:03:05.990Z,48.30
2018-03-28T11:04:05.955Z,46.30
2018-03-28T11:05:05.948Z,46.40
2018-03-28T11:06:05.909Z,47.80
2018-03-28T11:07:05.881Z,45.80
2018-03-28T11:08:05.856Z,46.40
2018-03-28T11:09:05.832Z,45.50
2018-03-28T11:10:05.806Z,46.90
2018-03-28T11:11:05.788Z,46.70
2018-03-28T11:12:05.754Z,46.80
2018-03-28T11:13:05.737Z,48.10
2018-03-28T11:14:05.695Z,48.30
2018-03-28T11:15:05.672Z,48.50
2018-03-28T11:16:05.662Z,49.70
2018-03-28T11:17:05.620Z,50.10
2018-03-28T11:18:05.604Z,49.80
2018-03-28T11:19:05.578Z,51.60
2018-03-28T11:20:05.550Z,51.20
2018-03-28T11:21:05.526Z,49.90
2018-03-28T11:22:05.490Z,51.40
2018-03-28T11:23:05.476Z,53.60
2018-03-28T11:24:05.444Z,53.00
2018-03-28T11:25:05.419Z,52.10
2018-03-28T11:26:05.406Z,50.60
2018-03-28T11:27:05.363Z,51.40
2018-03-28T11:28:05.347Z,53.40
2018-03-28T11:29:05.319Z,49.00
2018-03-28T11:30:05.305Z,49.90
2018-03-28T11:31:05.268Z,50.00
2018-03-28T11:32:05.242Z,50.80
2018-03-28T11:33:05.218Z,49.90
2018-03-28T11:34:05.191Z,51.90
2018-03-28T11:35:05.160Z,54.20
2018-03-28T11:36:05.142Z,52.20
2018-03-28T11:37:05.108Z,49.50
2018-03-28T11:38:05.102Z,51.50
2018-03-28T11:39:05.062Z,47.30
2018-03-28T11:40:05.039Z,47.70
2018-03-28T11:41:05.020Z,49.00
2018-03-28T11:42:04.983Z,49.20
2018-03-28T11:43:04.972Z,48.20
2018-03-28T11:44:04.936Z,49.30
2018-03-28T11:45:04.914Z,48.10
2018-03-28T11:46:04.885Z,45.20
2018-03-28T11:47:04.864Z,44.40
2018-03-28T11:48:04.846Z,46.10
2018-03-28T11:49:04.809Z,45.90
2018-03-28T11:50:04.790Z,47.80
2018-03-28T11:51:04.756Z,49.20
2018-03-28T11:52:04.738Z,47.70
2018-03-28T11:53:04.807Z,49.30
2018-03-28T11:54:04.686Z,46.00
2018-03-28T11:55:04.663Z,45.50
2018-03-28T11:56:04.634Z,43.10
2018-03-28T11:57:04.606Z,43.70
2018-03-28T11:58:04.585Z,47.50
2018-03-28T11:59:04.555Z,44.80
2018-03-28T12:00:04.538Z,46.00
2018-03-28T12:01:04.515Z,47.70
2018-03-28T12:02:04.487Z,48.50
2018-03-28T12:03:04.457Z,48.40
2018-03-28T12:04:04.427Z,49.10
2018-03-28T12:05:04.401Z,48.90
2018-03-28T12:06:04.377Z,48.00
2018-03-28T12:07:04.353Z,48.40
2018-03-28T12:08:04.331Z,49.10
2018-03-28T12:09:04.334Z,49.80
2018-03-28T12:10:04.283Z,48.60
2018-03-28T12:11:04.254Z,47.80
2018-03-28T12:12:04.215Z,47.40
2018-03-28T12:13:04.202Z,49.30
2018-03-28T12:14:04.171Z,46.00
2018-03-28T12:15:04.154Z,47.80
2018-03-28T12:16:04.186Z,48.30
2018-03-28T12:17:04.099Z,48.00
2018-03-28T12:18:04.063Z,48.30
2018-03-28T12:19:04.062Z,46.10
2018-03-28T12:20:04.021Z,43.30
2018-03-28T12:21:04.016Z,43.30
2018-03-28T12:22:03.970Z,45.40
2018-03-28T12:23:03.944Z,44.20
2018-03-28T12:24:03.923Z,44.50
2018-03-28T12:25:03.924Z,42.80
2018-03-28T12:26:03.863Z,38.10
2018-03-28T12:27:03.849Z,40.60
2018-03-28T12:28:03.816Z,36.70
2018-03-28T12:29:03.814Z,35.80
2018-03-28T12:30:03.765Z,36.60
2018-03-28T12:31:03.735Z,35.30
2018-03-28T12:32:03.709Z,35.00
2018-03-28T12:33:03.687Z,36.60
2018-03-28T12:34:03.670Z,36.60
2018-03-28T12:35:03.638Z,37.50
2018-03-28T12:36:03.607Z,37.30
2018-03-28T12:37:03.580Z,35.80
2018-03-28T12:38:03.555Z,36.70
2018-03-28T12:39:03.530Z,36.10
2018-03-28T12:40:03.502Z,36.40
2018-03-28T12:41:03.481Z,34.70
2018-03-28T12:42:03.480Z,34.40
2018-03-28T12:43:03.423Z,36.70
2018-03-28T12:44:03.410Z,35.40
2018-03-28T12:45:03.378Z,34.10
2018-03-28T12:46:03.360Z,34.10
2018-03-28T12:47:03.330Z,35.20
2018-03-28T12:48:03.302Z,33.20
2018-03-28T12:49:03.281Z,35.60
2018-03-28T12:50:03.264Z,34.70